Time;durP1;ratioP1;P1;durP2;ratioP2;P2;SDS_P1;SDS_P2;PMS_P1;PMS_P2;Temp;Humidity;BMP_temperature;BMP_pressure;BME280_temperature;BME280_humidity;BME280_pressure;Samples;Min_cycle;Max_cycle;Signal;HPM_P1;HPM_P2
2022/11/07 00:01:21;;;;;;;17.17;9.27;;;;;;;6.19;100.00;100354.44;4863719;29;20073;-80
2022/11/07 00:03:50;;;;;;;13.40;8.70;;;;;;;6.10;100.00;100347.50;4857075;29;20072;-81
2022/11/07 00:06:17;;;;;;;15.73;9.67;;;;;;;6.08;100.00;100358.88;4821357;29;20052;-80
2022/11/07 00:08:48;;;;;;;15.83;9.67;;;;;;;6.17;100.00;100349.19;4863047;29;20223;-81
2022/11/07 00:11:17;;;;;;;16.20;9.77;;;;;;;6.09;100.00;100356.25;4848870;29;20094;-81
2022/11/07 00:13:44;;;;;;;18.47;9.00;;;;;;;6.01;100.00;100365.91;4833416;29;20041;-82
2022/11/07 00:16:11;;;;;;;16.17;9.33;;;;;;;6.01;100.00;100349.31;4873436;29;20037;-80
2022/11/07 00:18:40;;;;;;;16.90;10.10;;;;;;;6.07;100.00;100344.91;4848570;29;20068;-80
2022/11/07 00:21:08;;;;;;;14.97;9.40;;;;;;;6.10;100.00;100344.88;4864740;29;20051;-80
2022/11/07 00:23:38;;;;;;;16.80;9.30;;;;;;;6.00;100.00;100350.19;4849454;29;20089;-80
2022/11/07 00:26:07;;;;;;;14.87;10.03;;;;;;;6.13;100.00;100352.72;4848423;29;20061;-80
2022/11/07 00:28:35;;;;;;;13.93;8.53;;;;;;;6.09;100.00;100345.75;4849684;29;20049;-81
2022/11/07 00:31:03;;;;;;;15.57;8.33;;;;;;;6.05;100.00;100341.41;4879069;29;20049;-80
2022/11/07 00:33:30;;;;;;;15.23;9.27;;;;;;;6.08;100.00;100338.78;4857953;29;20504;-80
2022/11/07 00:35:57;;;;;;;15.93;10.43;;;;;;;6.08;100.00;100325.66;4863180;29;20060;-80
2022/11/07 00:38:23;;;;;;;19.20;9.17;;;;;;;6.06;100.00;100330.06;4833810;29;20073;-80
2022/11/07 00:41:02;;;;;;;14.67;9.07;;;;;;;6.09;100.00;100327.41;4849779;29;20045;-80
2022/11/07 00:43:29;;;;;;;15.27;8.90;;;;;;;6.19;100.00;100320.31;4850139;29;20056;-80
2022/11/07 00:45:56;;;;;;;16.77;9.43;;;;;;;6.30;100.00;100326.34;4863753;29;20053;-81
2022/11/07 00:48:23;;;;;;;14.57;9.20;;;;;;;6.31;100.00;100335.97;4851872;29;20041;-80
2022/11/07 00:50:50;;;;;;;16.53;9.17;;;;;;;6.37;100.00;100333.28;4870514;29;20093;-81
2022/11/07 00:53:16;;;;;;;16.23;9.77;;;;;;;6.39;100.00;100334.16;4848111;29;20053;-80
2022/11/07 00:55:46;;;;;;;13.43;8.27;;;;;;;6.32;100.00;100348.22;4843003;29;20053;-80
2022/11/07 00:58:13;;;;;;;14.80;9.07;;;;;;;6.35;100.00;100345.56;4868653;29;20040;-80
2022/11/07 01:00:40;;;;;;;13.90;9.43;;;;;;;6.29;100.00;100348.22;4879687;29;20051;-82
2022/11/07 01:05:57;;;;;;;14.37;8.50;;;;;;;6.37;100.00;100340.28;4869326;29;20065;-80
2022/11/07 01:08:24;;;;;;;13.10;8.10;;;;;;;6.46;100.00;100340.22;4844339;29;20090;-81
2022/11/07 01:10:51;;;;;;;13.87;8.63;;;;;;;6.40;100.00;100341.16;4863217;29;20418;-80
2022/11/07 01:13:18;;;;;;;14.37;8.17;;;;;;;6.43;100.00;100342.88;4848748;29;20060;-80
2022/11/07 01:15:44;;;;;;;14.97;8.50;;;;;;;6.40;100.00;100329.78;4849808;29;20371;-81
2022/11/07 01:18:11;;;;;;;13.47;7.97;;;;;;;6.43;100.00;100324.50;4867136;29;20166;-80
2022/11/07 01:20:39;;;;;;;12.60;8.00;;;;;;;6.43;100.00;100325.38;4869115;29;20583;-79
2022/11/07 01:23:06;;;;;;;14.63;8.30;;;;;;;6.57;100.00;100334.88;4847421;29;20616;-80
2022/11/07 01:25:36;;;;;;;14.13;8.27;;;;;;;6.58;100.00;100334.00;4853637;29;20487;-80
2022/11/07 01:28:04;;;;;;;17.20;9.30;;;;;;;6.47;100.00;100319.22;4878116;29;20037;-80
2022/11/07 01:30:31;;;;;;;14.57;9.00;;;;;;;6.53;100.00;100315.66;4863981;29;20546;-81
2022/11/07 01:32:58;;;;;;;14.27;8.20;;;;;;;6.57;100.00;100316.50;4848362;29;20460;-80
2022/11/07 01:35:24;;;;;;;13.40;8.60;;;;;;;6.54;100.00;100321.78;4849203;29;20049;-79
2022/11/07 01:37:51;;;;;;;15.33;9.23;;;;;;;6.53;100.00;100322.66;4859581;29;20062;-81
2022/11/07 01:40:18;;;;;;;11.27;7.77;;;;;;;6.57;100.00;100327.88;4829545;29;20087;-80
2022/11/07 01:42:44;;;;;;;12.27;8.20;;;;;;;6.59;100.00;100320.84;4845552;29;20117;-80
2022/11/07 01:45:22;;;;;;;14.53;8.30;;;;;;;6.49;100.00;100319.22;4895253;29;20108;-79
2022/11/07 01:47:50;;;;;;;13.93;8.63;;;;;;;6.43;100.00;100322.75;4846363;29;20037;-82
2022/11/07 01:50:17;;;;;;;11.30;8.23;;;;;;;6.48;100.00;100320.97;4870585;29;20045;-82
2022/11/07 01:52:46;;;;;;;15.60;9.10;;;;;;;6.46;100.00;100319.22;4848813;29;20051;-82
2022/11/07 01:55:20;;;;;;;13.50;8.63;;;;;;;6.47;100.00;100316.59;4830791;29;20069;-82
2022/11/07 01:57:52;;;;;;;15.00;8.75;;;;;;;6.46;100.00;100309.59;4872040;29;20074;-83
2022/11/07 02:00:20;;;;;;;15.73;8.83;;;;;;;6.45;100.00;100309.59;4868705;29;20567;-82
2022/11/07 02:02:54;;;;;;;13.43;8.00;;;;;;;6.43;100.00;100311.38;4844977;29;20116;-82
2022/11/07 02:05:30;;;;;;;14.68;8.73;;;;;;;6.40;100.00;100303.56;4845795;29;20041;-83
2022/11/07 02:07:57;;;;;;;14.73;8.23;;;;;;;6.48;100.00;100299.09;4859128;29;20459;-82
2022/11/07 02:10:25;;;;;;;14.20;8.50;;;;;;;6.48;100.00;100296.47;4860645;29;20049;-82
2022/11/07 02:12:51;;;;;;;12.80;8.77;;;;;;;6.53;100.00;100304.28;4843084;29;20050;-82
2022/11/07 02:15:18;;;;;;;11.57;8.23;;;;;;;6.33;100.00;100296.63;4861548;29;20554;-82
2022/11/07 02:17:45;;;;;;;16.80;8.40;;;;;;;6.33;100.00;100296.63;4845342;29;20117;-82
2022/11/07 02:20:11;;;;;;;12.43;8.47;;;;;;;6.29;100.00;100301.00;4859339;29;20040;-81
2022/11/07 02:22:55;;;;;;;14.43;8.57;;;;;;;6.25;100.00;100293.19;4844639;29;20127;-81
2022/11/07 02:25:22;;;;;;;13.13;8.40;;;;;;;6.38;100.00;100295.66;4843342;29;20092;-82
2022/11/07 02:27:57;;;;;;;12.87;8.17;;;;;;;6.32;100.00;100298.38;4857672;29;20049;-82
2022/11/07 02:30:27;;;;;;;14.93;8.77;;;;;;;6.26;100.00;100303.66;4850977;29;20044;-82
2022/11/07 02:32:54;;;;;;;15.07;8.33;;;;;;;6.12;100.00;100305.53;4842268;29;20045;-81
2022/11/07 02:35:41;;;;;;;13.03;8.70;;;;;;;6.23;100.00;100306.31;4860153;29;20546;-82
2022/11/07 02:38:15;;;;;;;12.80;7.83;;;;;;;6.31;100.00;100303.63;4827652;29;20102;-82
2022/11/07 02:40:43;;;;;;;14.55;8.13;;;;;;;6.26;100.00;100306.28;4867514;29;20396;-82
2022/11/07 02:43:12;;;;;;;12.47;8.00;;;;;;;6.30;100.00;100304.50;4858963;29;20057;-83
2022/11/07 02:45:43;;;;;;;13.30;9.03;;;;;;;6.35;100.00;100300.09;4840636;29;20117;-80
2022/11/07 02:48:09;;;;;;;13.67;8.47;;;;;;;6.31;100.00;100298.38;4831300;29;20045;-81
2022/11/07 02:50:36;;;;;;;12.33;7.40;;;;;;;6.49;100.00;100304.31;4863902;29;20492;-83
2022/11/07 02:53:03;;;;;;;12.83;8.10;;;;;;;6.45;100.00;100304.34;4846848;29;20765;-82
2022/11/07 02:55:29;;;;;;;13.30;8.87;;;;;;;6.45;100.00;100307.84;4857137;29;20074;-83
2022/11/07 02:57:56;;;;;;;12.90;8.27;;;;;;;6.51;100.00;100311.31;4847886;29;20109;-83
2022/11/07 03:00:23;;;;;;;13.97;8.37;;;;;;;6.61;100.00;100311.19;4830277;29;20121;-83
2022/11/07 03:02:49;;;;;;;11.03;8.20;;;;;;;6.63;100.00;100300.69;4846307;29;20196;-84
2022/11/07 03:05:18;;;;;;;18.87;8.57;;;;;;;6.64;100.00;100305.94;4852006;29;20067;-82
2022/11/07 03:07:46;;;;;;;14.77;8.57;;;;;;;6.65;100.00;100306.81;4847169;29;20053;-83
2022/11/07 03:10:16;;;;;;;13.53;7.93;;;;;;;6.75;100.00;100314.56;4836612;29;20042;-82
2022/11/07 03:12:42;;;;;;;12.63;7.53;;;;;;;6.74;100.00;100319.84;4878398;29;20570;-83
2022/11/07 03:15:10;;;;;;;14.13;8.17;;;;;;;6.85;100.00;100317.09;4868279;29;20073;-83
2022/11/07 03:17:37;;;;;;;12.60;7.83;;;;;;;6.92;100.00;100314.38;4854174;29;20044;-84
2022/11/07 03:20:04;;;;;;;12.53;8.23;;;;;;;6.89;100.00;100314.41;4874513;29;20420;-82
2022/11/07 03:22:31;;;;;;;13.00;7.83;;;;;;;6.88;100.00;100311.78;4853887;29;20052;-83
2022/11/07 03:24:57;;;;;;;12.33;7.57;;;;;;;6.94;100.00;100304.72;4847335;29;20049;-82
2022/11/07 03:27:24;;;;;;;14.20;8.70;;;;;;;7.04;100.00;100313.34;4861938;29;20041;-81
2022/11/07 03:29:50;;;;;;;10.93;7.67;;;;;;;6.95;100.00;100302.97;4844297;29;20045;-82
2022/11/07 03:32:17;;;;;;;13.57;8.17;;;;;;;6.90;100.00;100304.78;4866236;29;20048;-80
2022/11/07 03:34:44;;;;;;;13.73;8.20;;;;;;;7.00;100.00;100311.69;4850464;29;20649;-79
2022/11/07 03:37:10;;;;;;;10.80;7.37;;;;;;;7.13;100.00;100313.25;4860330;29;20041;-78
2022/11/07 03:39:37;;;;;;;13.10;8.13;;;;;;;7.01;100.00;100318.66;4848601;29;20053;-80
2022/11/07 03:42:04;;;;;;;11.93;7.27;;;;;;;6.97;100.00;100316.94;4843889;29;20094;-80
2022/11/07 03:44:30;;;;;;;12.13;7.57;;;;;;;7.06;100.00;100314.22;4847651;29;20060;-79
2022/11/07 03:46:57;;;;;;;11.87;7.67;;;;;;;7.08;100.00;100315.09;4861809;29;20044;-82
2022/11/07 03:49:24;;;;;;;12.90;7.40;;;;;;;7.11;100.00;100322.91;4862356;29;20047;-82
2022/11/07 03:51:50;;;;;;;12.00;7.13;;;;;;;7.06;100.00;100311.56;4854891;29;20053;-82
2022/11/07 03:54:17;;;;;;;11.47;7.63;;;;;;;7.12;100.00;100324.66;4844226;29;20510;-82
2022/11/07 03:56:43;;;;;;;9.63;7.10;;;;;;;7.08;100.00;100325.59;4860812;29;20052;-83
2022/11/07 03:59:10;;;;;;;11.33;6.87;;;;;;;7.13;100.00;100328.16;4862257;29;20053;-82
2022/11/07 04:01:37;;;;;;;9.73;7.20;;;;;;;7.10;100.00;100322.94;4864447;29;20053;-81
2022/11/07 04:04:04;;;;;;;11.20;7.13;;;;;;;7.22;100.00;100321.00;4863125;29;20049;-82
2022/11/07 04:06:30;;;;;;;13.30;7.67;;;;;;;7.21;100.00;100332.41;4849658;29;20037;-82
2022/11/07 04:08:57;;;;;;;9.93;6.67;;;;;;;7.22;100.00;100328.91;4860217;29;20049;-78
2022/11/07 04:19:40;;;;;;;9.23;6.23;;;;;;;7.22;100.00;100325.41;4859212;29;20049;-83
2022/11/07 04:22:07;;;;;;;12.00;6.80;;;;;;;7.25;100.00;100328.88;4834243;29;20041;-82
2022/11/07 04:24:33;;;;;;;12.27;7.27;;;;;;;7.28;100.00;100331.47;4832006;29;20052;-79
2022/11/07 04:29:45;;;;;;;9.47;6.27;;;;;;;7.26;100.00;100338.50;4858797;29;20686;-80
2022/11/07 04:32:12;;;;;;;8.90;5.80;;;;;;;7.42;100.00;100333.94;4851495;29;20518;-80
2022/11/07 04:34:39;;;;;;;11.40;6.80;;;;;;;7.37;100.00;100337.50;4852345;29;20045;-79
2022/11/07 04:37:05;;;;;;;9.90;6.80;;;;;;;7.42;100.00;100346.19;4847976;29;20041;-80
2022/11/07 04:39:32;;;;;;;9.03;5.83;;;;;;;7.42;100.00;100343.56;4830768;29;20049;-80
2022/11/07 04:41:59;;;;;;;8.83;6.33;;;;;;;7.37;100.00;100337.50;4848091;29;20518;-81
2022/11/07 04:44:25;;;;;;;10.57;6.23;;;;;;;7.36;100.00;100336.63;4861358;29;20131;-83
2022/11/07 04:46:52;;;;;;;9.93;6.53;;;;;;;7.39;100.00;100340.97;4865334;29;20239;-80
2022/11/07 04:49:19;;;;;;;11.47;6.40;;;;;;;7.34;100.00;100344.53;4863530;29;20400;-80
2022/11/07 04:51:45;;;;;;;7.93;5.70;;;;;;;7.35;100.00;100345.41;4844516;29;20089;-80
2022/11/07 04:54:13;;;;;;;9.10;5.47;;;;;;;7.47;100.00;100347.00;4850785;29;20044;-80
2022/11/07 04:56:40;;;;;;;10.87;6.47;;;;;;;7.42;100.00;100338.31;4845087;29;20037;-83
2022/11/07 04:59:07;;;;;;;7.23;5.00;;;;;;;7.39;100.00;100357.59;4921248;23;20032;-86
2022/11/07 05:01:33;;;;;;;10.10;5.67;;;;;;;7.45;100.00;100356.66;4892522;29;20075;-86
2022/11/07 05:04:00;;;;;;;9.70;6.17;;;;;;;7.53;100.00;100352.19;4878768;29;20089;-87
2022/11/07 05:06:27;;;;;;;8.80;5.93;;;;;;;7.60;100.00;100345.97;4880416;29;20127;-86
2022/11/07 05:08:54;;;;;;;8.93;5.73;;;;;;;7.72;100.00;100353.66;4864330;29;20043;-87
2022/11/07 05:11:20;;;;;;;9.30;6.40;;;;;;;7.63;100.00;100346.78;4872730;29;20595;-85
2022/11/07 05:13:47;;;;;;;10.27;5.77;;;;;;;7.67;100.00;100352.00;4874873;29;20182;-86
2022/11/07 05:16:18;;;;;;;9.53;5.60;;;;;;;7.63;100.00;100351.16;4868110;29;20048;-83
2022/11/07 05:18:45;;;;;;;9.57;6.23;;;;;;;7.63;100.00;100352.03;4854877;29;20068;-87
2022/11/07 05:21:11;;;;;;;11.50;6.60;;;;;;;7.71;100.00;100349.31;4881761;29;20044;-87
2022/11/07 05:23:38;;;;;;;8.67;5.57;;;;;;;7.75;100.00;100350.16;4886411;29;20061;-86
2022/11/07 05:26:05;;;;;;;8.67;5.50;;;;;;;7.67;100.00;100352.88;4870229;29;20481;-86
2022/11/07 05:28:32;;;;;;;7.40;5.23;;;;;;;7.87;100.00;100355.22;4860804;29;20032;-87
2022/11/07 05:31:06;;;;;;;8.43;5.30;;;;;;;7.73;100.00;100349.28;4875833;29;20397;-86
2022/11/07 05:33:33;;;;;;;8.07;5.70;;;;;;;7.87;100.00;100348.19;4893572;29;20297;-86
2022/11/07 05:36:11;;;;;;;9.33;5.50;;;;;;;7.92;100.00;100342.88;4873711;29;20039;-86
2022/11/07 05:38:42;;;;;;;7.23;4.77;;;;;;;7.90;100.00;100350.81;4880738;29;20070;-85
2022/11/07 05:41:10;;;;;;;7.57;4.70;;;;;;;7.81;100.00;100356.16;4901059;29;20420;-86
2022/11/07 05:43:37;;;;;;;6.63;4.30;;;;;;;7.93;100.00;100356.91;4872190;29;20043;-85
2022/11/07 05:46:04;;;;;;;9.33;5.83;;;;;;;8.06;100.00;100359.31;4893995;29;20055;-86
2022/11/07 05:48:31;;;;;;;6.80;4.77;;;;;;;7.95;100.00;100363.00;4880235;29;20135;-85
2022/11/07 05:50:57;;;;;;;7.20;5.17;;;;;;;7.90;100.00;100366.59;4867427;29;20516;-85
2022/11/07 05:53:25;;;;;;;7.70;4.72;;;;;;;8.00;100.00;100367.31;4862019;29;20079;-85
2022/11/07 05:55:52;;;;;;;7.87;4.43;;;;;;;7.99;100.00;100372.56;4872602;29;20040;-85
2022/11/07 05:58:19;;;;;;;6.70;4.47;;;;;;;8.07;100.00;100375.97;4883159;29;20049;-85
2022/11/07 06:00:46;;;;;;;7.00;4.93;;;;;;;7.95;100.00;100374.38;4888826;29;20043;-85
2022/11/07 06:03:12;;;;;;;7.20;4.43;;;;;;;8.16;100.00;100383.75;4884996;29;20067;-87
2022/11/07 06:05:41;;;;;;;6.20;4.60;;;;;;;8.14;100.00;100385.50;4891944;29;20044;-85
2022/11/07 06:08:10;;;;;;;7.47;4.87;;;;;;;8.08;100.00;100378.59;4863671;29;20059;-85
2022/11/07 06:10:38;;;;;;;5.37;4.17;;;;;;;8.16;100.00;100383.75;4874399;29;20040;-85
2022/11/07 06:13:07;;;;;;;7.67;4.73;;;;;;;8.26;100.00;100389.75;4888417;29;20710;-86
2022/11/07 06:15:35;;;;;;;6.37;4.20;;;;;;;8.23;100.00;100401.16;4879715;29;20044;-85
2022/11/07 06:18:04;;;;;;;6.23;4.10;;;;;;;8.27;100.00;100389.69;4894711;29;20051;-86
2022/11/07 06:20:32;;;;;;;6.97;4.60;;;;;;;8.30;100.00;100387.00;4870965;29;20091;-86
2022/11/07 06:23:00;;;;;;;5.90;4.63;;;;;;;8.22;100.00;100404.69;4866869;29;20075;-85
2022/11/07 06:25:27;;;;;;;5.63;4.03;;;;;;;8.18;100.00;100405.63;4893825;29;20044;-86
2022/11/07 06:28:06;;;;;;;7.10;4.73;;;;;;;8.21;100.00;100405.59;4865253;29;20036;-84
2022/11/07 06:30:33;;;;;;;6.63;4.07;;;;;;;8.29;100.00;100411.59;4877361;29;20061;-85
2022/11/07 06:33:04;;;;;;;9.80;4.43;;;;;;;8.21;100.00;100405.59;4884800;29;20048;-85
2022/11/07 06:35:31;;;;;;;8.17;4.90;;;;;;;8.43;100.00;100409.66;4892800;29;20048;-86
2022/11/07 06:38:02;;;;;;;5.63;4.30;;;;;;;8.33;100.00;100412.44;4885032;29;20059;-86
2022/11/07 06:40:29;;;;;;;4.90;3.70;;;;;;;8.24;100.00;100416.09;4900447;29;20103;-86
2022/11/07 06:43:14;;;;;;;6.37;3.77;;;;;;;8.26;100.00;100418.69;4885293;29;20048;-85
2022/11/07 06:45:42;;;;;;;5.40;4.10;;;;;;;8.31;100.00;100420.34;4871190;29;20421;-85
2022/11/07 06:48:10;;;;;;;5.47;4.03;;;;;;;8.33;100.00;100413.31;4891731;29;20040;-84
2022/11/07 06:50:37;;;;;;;5.03;3.65;;;;;;;8.36;100.00;100418.53;4909103;29;20100;-86
2022/11/07 06:53:10;;;;;;;5.90;4.00;;;;;;;8.35;100.00;100426.47;4869386;29;20535;-84
2022/11/07 06:55:37;;;;;;;4.57;3.60;;;;;;;8.43;100.00;100414.94;4859726;29;20315;-84
2022/11/07 06:58:04;;;;;;;5.97;4.38;;;;;;;8.59;100.00;100412.06;4866530;29;20043;-85
2022/11/07 07:00:32;;;;;;;7.32;3.85;;;;;;;8.57;100.00;100416.47;4884287;29;20549;-85
2022/11/07 07:02:59;;;;;;;7.33;4.00;;;;;;;8.57;100.00;100413.81;4866618;29;20040;-85
2022/11/07 07:05:26;;;;;;;5.88;3.63;;;;;;;8.72;100.00;100410.94;4850503;29;20049;-86
2022/11/07 07:07:54;;;;;;;5.95;3.70;;;;;;;8.67;100.00;100407.53;4865379;29;20047;-86
2022/11/07 07:10:23;;;;;;;6.13;3.92;;;;;;;8.64;100.00;100413.69;4859028;29;20052;-86
2022/11/07 07:12:52;;;;;;;5.13;3.22;;;;;;;8.58;100.00;100431.38;4869764;29;20055;-85
2022/11/07 07:15:19;;;;;;;5.85;3.67;;;;;;;8.60;100.00;100430.47;4865788;29;20068;-86
2022/11/07 07:17:46;;;;;;;5.97;3.47;;;;;;;8.65;100.00;100425.97;4867069;29;20068;-85
2022/11/07 07:20:12;;;;;;;4.27;3.10;;;;;;;8.67;100.00;100434.75;4885904;29;20078;-85
2022/11/07 07:22:39;;;;;;;5.57;3.65;;;;;;;8.73;100.00;100429.34;4869337;29;20048;-86
2022/11/07 07:25:07;;;;;;;5.73;3.60;;;;;;;8.66;100.00;100440.91;4880483;29;20489;-84
2022/11/07 07:27:33;;;;;;;4.65;3.35;;;;;;;8.79;100.00;100428.38;4886643;29;20051;-84
2022/11/07 07:30:00;;;;;;;4.18;3.03;;;;;;;8.73;100.00;100431.13;4872796;29;20510;-85
2022/11/07 07:32:27;;;;;;;6.67;3.60;;;;;;;8.88;100.00;100444.03;4890703;29;20047;-85
2022/11/07 07:34:53;;;;;;;4.50;3.70;;;;;;;8.89;100.00;100429.97;4885153;29;20052;-85
2022/11/07 07:37:20;;;;;;;4.50;2.92;;;;;;;9.03;100.00;100437.63;4894963;29;20403;-86
2022/11/07 07:39:47;;;;;;;4.65;3.30;;;;;;;9.08;100.00;100438.44;4872153;29;20040;-84
2022/11/07 07:42:13;;;;;;;4.90;3.10;;;;;;;9.08;100.00;100438.44;4872358;29;20044;-85
2022/11/07 07:44:41;;;;;;;6.38;3.38;;;;;;;9.08;100.00;100450.72;4881827;29;20195;-86
2022/11/07 07:47:08;;;;;;;7.40;3.28;;;;;;;9.28;100.00;100446.84;4865500;29;20040;-85
2022/11/07 07:49:37;;;;;;;4.47;3.05;;;;;;;9.17;100.00;100429.50;4887776;29;20043;-85
2022/11/07 07:52:04;;;;;;;4.18;2.80;;;;;;;9.18;100.00;100436.50;4888025;29;20040;-85
2022/11/07 07:54:31;;;;;;;3.90;2.83;;;;;;;9.35;100.00;100441.47;4883213;29;20040;-85
2022/11/07 07:56:58;;;;;;;4.10;2.70;;;;;;;9.42;100.00;100433.41;4862622;29;20399;-85
2022/11/07 07:59:24;;;;;;;4.13;2.88;;;;;;;9.41;100.00;100434.28;4865229;29;20135;-86
2022/11/07 08:01:52;;;;;;;4.63;2.75;;;;;;;9.41;100.00;100431.63;4903229;29;20052;-86
2022/11/07 08:04:23;;;;;;;4.18;2.83;;;;;;;9.52;100.00;100437.59;4885890;29;20076;-85
2022/11/07 08:06:49;;;;;;;3.78;2.65;;;;;;;9.50;100.00;100443.78;4868954;29;20048;-85
2022/11/07 08:09:16;;;;;;;6.55;3.10;;;;;;;9.51;100.00;100435.88;4904880;29;20043;-85
2022/11/07 08:11:43;;;;;;;3.85;2.55;;;;;;;9.53;100.00;100438.47;4882967;29;20098;-85
2022/11/07 08:14:10;;;;;;;4.68;2.88;;;;;;;9.59;100.00;100454.16;4886360;29;20055;-86
2022/11/07 08:16:37;;;;;;;5.72;3.13;;;;;;;9.61;100.00;100441.81;4870839;29;20040;-85
2022/11/07 08:19:04;;;;;;;4.38;2.55;;;;;;;9.61;100.00;100438.31;4871673;29;20052;-85
2022/11/07 08:21:30;;;;;;;4.85;2.95;;;;;;;9.56;100.00;100454.22;4873540;29;20557;-85
2022/11/07 08:23:57;;;;;;;4.68;2.63;;;;;;;9.73;100.00;100451.25;4862095;29;20051;-86
2022/11/07 08:26:24;;;;;;;3.83;2.75;;;;;;;9.71;100.00;100456.56;4859157;29;20102;-85
2022/11/07 08:28:52;;;;;;;6.05;3.35;;;;;;;9.79;100.00;100453.75;4870242;29;20048;-86
2022/11/07 08:31:19;;;;;;;4.00;2.55;;;;;;;9.80;100.00;100452.84;4886058;29;20048;-85
2022/11/07 08:33:46;;;;;;;4.55;2.70;;;;;;;9.79;100.00;100456.41;4885249;29;20048;-85
2022/11/07 08:36:13;;;;;;;5.40;2.50;;;;;;;9.80;100.00;100459.00;4873983;29;20689;-85
2022/11/07 08:38:40;;;;;;;5.53;2.58;;;;;;;9.87;100.00;100471.19;4873871;29;20049;-85
2022/11/07 08:41:07;;;;;;;4.03;2.53;;;;;;;9.93;100.00;100456.13;4873100;29;20535;-85
2022/11/07 08:43:33;;;;;;;3.45;2.70;;;;;;;9.94;100.00;100471.06;4862581;29;20387;-85
2022/11/07 08:46:00;;;;;;;3.03;2.13;;;;;;;9.93;100.00;100462.28;4896969;29;20040;-85
2022/11/07 08:48:27;;;;;;;4.95;2.40;;;;;;;9.93;100.00;100464.03;4869613;29;20066;-86
2022/11/07 08:50:55;;;;;;;3.63;2.20;;;;;;;9.97;100.00;100471.84;4883235;29;20525;-85
2022/11/07 08:53:22;;;;;;;3.60;2.30;;;;;;;9.99;100.00;100470.03;4869831;29;20049;-85
2022/11/07 08:55:49;;;;;;;5.10;2.70;;;;;;;9.95;100.00;100464.88;4874376;29;20046;-85
2022/11/07 08:58:16;;;;;;;4.47;2.50;;;;;;;10.00;100.00;100469.13;4874166;29;20068;-85
2022/11/07 09:00:42;;;;;;;5.07;2.55;;;;;;;10.06;100.00;100462.84;4878003;29;20074;-86
2022/11/07 09:03:10;;;;;;;3.33;2.55;;;;;;;10.03;100.00;100469.09;4902202;29;20051;-84
2022/11/07 09:05:57;;;;;;;3.55;2.33;;;;;;;10.03;100.00;100460.31;4892194;29;20127;-85
2022/11/07 09:08:24;;;;;;;3.05;2.15;;;;;;;10.16;100.00;100472.31;4876707;29;20036;-83
2022/11/07 09:10:50;;;;;;;4.40;2.45;;;;;;;10.23;100.00;100468.69;4890369;29;20051;-84
2022/11/07 09:13:19;;;;;;;3.17;2.38;;;;;;;10.19;100.00;100468.75;4872750;29;20044;-84
2022/11/07 09:15:46;;;;;;;4.80;2.28;;;;;;;10.32;100.00;100464.97;4884302;29;20047;-85
2022/11/07 09:18:17;;;;;;;5.22;2.25;;;;;;;10.42;100.00;100471.75;4881846;29;20043;-84
2022/11/07 09:20:44;;;;;;;3.95;2.10;;;;;;;10.37;100.00;100474.53;4898275;29;20056;-85
2022/11/07 09:23:11;;;;;;;4.63;2.88;;;;;;;10.38;100.00;100470.97;4869300;29;20497;-86
2022/11/07 09:25:37;;;;;;;4.03;2.35;;;;;;;10.52;100.00;100480.38;4871014;29;20047;-87
2022/11/07 09:28:04;;;;;;;4.60;2.30;;;;;;;10.50;100.00;100477.75;4888472;29;20521;-86
2022/11/07 09:30:31;;;;;;;3.67;2.42;;;;;;;10.69;100.00;100483.50;4886193;29;20565;-85
2022/11/07 09:32:58;;;;;;;3.28;2.03;;;;;;;10.56;100.00;100482.88;4867942;29;20654;-86
2022/11/07 09:35:25;;;;;;;3.53;2.05;;;;;;;10.62;100.00;100493.31;4867793;29;20040;-85
2022/11/07 09:37:52;;;;;;;6.03;2.35;;;;;;;10.60;100.00;100491.63;4877480;29;20040;-86
2022/11/07 09:40:18;;;;;;;3.13;2.08;;;;;;;10.63;100.00;100495.06;4891521;29;20055;-87
2022/11/07 09:42:56;;;;;;;4.43;2.33;;;;;;;10.75;100.00;100495.66;4886764;29;20051;-85
2022/11/07 09:45:22;;;;;;;3.97;2.13;;;;;;;10.80;100.00;100496.44;4876581;29;21756;-85
2022/11/07 09:47:55;;;;;;;3.78;2.30;;;;;;;10.82;100.00;100484.91;4870344;29;20477;-84
2022/11/07 09:50:40;;;;;;;3.63;1.90;;;;;;;10.84;100.00;100488.38;4883651;29;20494;-85
2022/11/07 09:53:19;;;;;;;4.78;2.10;;;;;;;10.84;100.00;100496.31;4872313;29;20509;-86
2022/11/07 09:55:53;;;;;;;3.90;2.30;;;;;;;10.85;100.00;100489.28;4887999;29;20100;-86
2022/11/07 09:58:25;;;;;;;5.07;2.58;;;;;;;10.87;100.00;100482.16;4877109;29;20042;-86
2022/11/07 10:00:53;;;;;;;5.07;2.20;;;;;;;10.93;100.00;100487.28;4866859;29;20041;-85
2022/11/07 10:03:20;;;;;;;3.25;2.33;;;;;;;10.91;100.00;100489.09;4894162;29;20457;-85
2022/11/07 10:06:10;;;;;;;7.10;4.00;;;;;;;10.96;100.00;100495.16;4871619;29;20044;-85
2022/11/07 10:08:44;;;;;;;3.95;2.72;;;;;;;11.02;100.00;100492.38;4896464;29;20044;-86
2022/11/07 10:11:34;;;;;;;2.25;2.03;;;;;;;11.04;100.00;100493.19;4880846;29;20043;-85
2022/11/07 10:14:21;;;;;;;3.67;2.40;;;;;;;11.24;98.90;100496.19;4873274;29;20037;-86
2022/11/07 10:17:07;;;;;;;3.55;2.30;;;;;;;11.26;98.80;100499.66;4890081;29;20055;-85
2022/11/07 10:19:58;;;;;;;3.33;2.05;;;;;;;11.25;100.00;100500.56;4867046;29;20052;-85
2022/11/07 10:22:41;;;;;;;3.28;2.15;;;;;;;11.35;100.00;100502.97;4897607;29;20467;-85
2022/11/07 10:25:20;;;;;;;2.13;1.80;;;;;;;11.46;98.53;100496.50;4883503;29;20044;-84
2022/11/07 10:28:00;;;;;;;3.25;2.13;;;;;;;11.52;97.14;100493.69;4885785;29;20032;-85
2022/11/07 10:30:27;;;;;;;3.92;2.10;;;;;;;11.55;95.76;100485.66;4887145;29;20048;-86
2022/11/07 10:33:15;;;;;;;4.38;1.95;;;;;;;11.47;97.19;100482.38;4903525;29;20044;-85
2022/11/07 10:35:47;;;;;;;2.80;2.20;;;;;;;11.67;97.31;100486.22;4896632;29;20100;-85
2022/11/07 10:38:17;;;;;;;3.25;2.20;;;;;;;11.84;95.32;100473.44;4862183;29;20087;-87
2022/11/07 10:40:44;;;;;;;5.13;2.38;;;;;;;12.00;96.52;100474.72;4864212;29;20048;-85
2022/11/07 10:43:16;;;;;;;3.63;2.47;;;;;;;12.34;94.46;100481.66;4880725;29;20571;-86
2022/11/07 10:45:43;;;;;;;3.33;2.00;;;;;;;12.55;92.64;100477.50;4882042;29;20050;-85
2022/11/07 10:48:11;;;;;;;4.45;1.95;;;;;;;12.60;89.44;100480.84;4880632;29;20071;-83
2022/11/07 10:50:38;;;;;;;4.57;2.13;;;;;;;12.77;89.53;100467.91;4899995;29;20050;-85
2022/11/07 10:53:08;;;;;;;7.15;5.28;;;;;;;12.92;87.53;100474.50;4884205;29;20048;-83
2022/11/07 10:55:44;;;;;;;2.55;1.73;;;;;;;13.10;84.73;100467.72;4887933;29;20104;-85
2022/11/07 10:58:27;;;;;;;3.50;1.70;;;;;;;13.26;86.24;100468.97;4869993;29;20064;-85
2022/11/07 11:01:04;;;;;;;3.00;1.70;;;;;;;13.20;84.41;100463.84;4863734;29;20424;-84
2022/11/07 11:03:49;;;;;;;2.67;1.73;;;;;;;13.34;85.04;100469.56;4861899;29;20139;-85
2022/11/07 11:06:22;;;;;;;2.50;1.70;;;;;;;13.47;84.21;100470.03;4884489;29;20075;-85
2022/11/07 11:08:50;;;;;;;4.40;2.25;;;;;;;13.48;84.33;100467.31;4867792;29;20041;-85
2022/11/07 11:11:20;;;;;;;3.40;1.85;;;;;;;13.55;83.91;100453.81;4891481;29;20057;-82
2022/11/07 11:13:47;;;;;;;2.92;2.08;;;;;;;13.53;81.62;100462.69;4909581;29;20039;-82
2022/11/07 11:16:26;;;;;;;4.20;1.88;;;;;;;13.64;83.71;100456.16;4906145;29;20043;-82
2022/11/07 11:18:55;;;;;;;4.28;1.85;;;;;;;13.55;81.78;100465.31;4865885;29;20048;-83
2022/11/07 11:21:22;;;;;;;5.32;2.00;;;;;;;13.49;82.23;100458.41;4900377;29;20103;-83
2022/11/07 11:23:49;;;;;;;4.28;2.10;;;;;;;13.62;83.03;100458.88;4894480;29;20052;-82
2022/11/07 11:26:19;;;;;;;3.45;1.90;;;;;;;13.60;83.55;100465.13;4874728;29;20040;-82
2022/11/07 11:28:53;;;;;;;4.90;1.90;;;;;;;13.40;84.35;100463.19;4903889;29;20036;-83
2022/11/07 11:31:28;;;;;;;3.42;2.45;;;;;;;13.34;83.01;100460.75;4880211;29;20119;-83
2022/11/07 11:34:09;;;;;;;3.88;1.85;;;;;;;13.41;84.64;100459.63;4871732;29;20049;-83
2022/11/07 11:36:44;;;;;;;2.30;1.80;;;;;;;13.51;84.06;100467.19;4890959;29;20130;-83
2022/11/07 11:39:25;;;;;;;2.58;1.85;;;;;;;13.67;82.38;100463.97;4874688;29;20045;-82
2022/11/07 11:44:44;;;;;;;4.97;2.33;;;;;;;13.85;83.30;100457.13;4836986;29;20578;-80
2022/11/07 11:47:24;;;;;;;4.88;1.95;;;;;;;13.93;81.90;100457.72;4828862;29;20066;-80